sensor_id;sensor_type;location;lat;lon;timestamp;P1;durP1;ratioP1;P2;durP2;ratioP2
64875;SDS011;51369;49.862;9.908;2023-11-19T00:02:07;13.15;;;7.10;;
64875;SDS011;51369;49.862;9.908;2023-11-19T00:04:34;10.68;;;7.93;;
64875;SDS011;51369;49.862;9.908;2023-11-19T00:07:01;14.73;;;7.18;;
64875;SDS011;51369;49.862;9.908;2023-11-19T00:09:29;10.80;;;7.05;;
64875;SDS011;51369;49.862;9.908;2023-11-19T00:11:54;10.60;;;6.82;;
64875;SDS011;51369;49.862;9.908;2023-11-19T00:14:20;9.52;;;6.70;;
64875;SDS011;51369;49.862;9.908;2023-11-19T00:16:46;12.07;;;7.72;;
64875;SDS011;51369;49.862;9.908;2023-11-19T00:19:11;10.32;;;7.18;;
64875;SDS011;51369;49.862;9.908;2023-11-19T00:21:36;12.55;;;7.45;;
64875;SDS011;51369;49.862;9.908;2023-11-19T00:24:02;11.13;;;6.72;;
64875;SDS011;51369;49.862;9.908;2023-11-19T00:26:29;9.52;;;6.78;;
64875;SDS011;51369;49.862;9.908;2023-11-19T00:28:55;10.93;;;6.68;;
64875;SDS011;51369;49.862;9.908;2023-11-19T00:31:21;12.40;;;7.13;;
64875;SDS011;51369;49.862;9.908;2023-11-19T00:33:46;15.02;;;6.63;;
64875;SDS011;51369;49.862;9.908;2023-11-19T00:36:12;12.18;;;6.43;;
64875;SDS011;51369;49.862;9.908;2023-11-19T00:38:38;13.95;;;6.75;;
64875;SDS011;51369;49.862;9.908;2023-11-19T00:41:03;12.10;;;7.07;;
64875;SDS011;51369;49.862;9.908;2023-11-19T00:43:29;12.88;;;7.30;;
64875;SDS011;51369;49.862;9.908;2023-11-19T00:45:54;11.23;;;7.25;;
64875;SDS011;51369;49.862;9.908;2023-11-19T00:48:20;13.52;;;7.25;;
64875;SDS011;51369;49.862;9.908;2023-11-19T00:50:45;12.35;;;7.53;;
64875;SDS011;51369;49.862;9.908;2023-11-19T00:53:11;11.85;;;8.00;;
64875;SDS011;51369;49.862;9.908;2023-11-19T00:55:36;11.65;;;7.07;;
64875;SDS011;51369;49.862;9.908;2023-11-19T00:58:02;16.13;;;7.40;;
64875;SDS011;51369;49.862;9.908;2023-11-19T01:00:28;12.88;;;7.28;;
64875;SDS011;51369;49.862;9.908;2023-11-19T01:02:53;16.75;;;7.90;;
64875;SDS011;51369;49.862;9.908;2023-11-19T01:05:19;10.80;;;7.00;;
64875;SDS011;51369;49.862;9.908;2023-11-19T01:07:48;11.15;;;7.25;;
64875;SDS011;51369;49.862;9.908;2023-11-19T01:10:14;11.43;;;7.20;;
64875;SDS011;51369;49.862;9.908;2023-11-19T01:12:41;9.90;;;6.63;;
64875;SDS011;51369;49.862;9.908;2023-11-19T01:15:07;11.13;;;7.70;;
64875;SDS011;51369;49.862;9.908;2023-11-19T01:17:33;13.32;;;7.57;;
64875;SDS011;51369;49.862;9.908;2023-11-19T01:19:58;12.13;;;7.25;;
64875;SDS011;51369;49.862;9.908;2023-11-19T01:22:24;9.38;;;7.38;;
64875;SDS011;51369;49.862;9.908;2023-11-19T01:24:49;10.52;;;6.93;;
64875;SDS011;51369;49.862;9.908;2023-11-19T01:27:15;14.30;;;7.32;;
64875;SDS011;51369;49.862;9.908;2023-11-19T01:29:41;12.75;;;7.60;;
64875;SDS011;51369;49.862;9.908;2023-11-19T01:32:07;11.68;;;6.68;;
64875;SDS011;51369;49.862;9.908;2023-11-19T01:34:33;10.23;;;7.38;;
64875;SDS011;51369;49.862;9.908;2023-11-19T01:36:58;13.10;;;7.13;;
64875;SDS011;51369;49.862;9.908;2023-11-19T01:39:24;11.77;;;7.32;;
64875;SDS011;51369;49.862;9.908;2023-11-19T01:41:49;11.93;;;7.13;;
64875;SDS011;51369;49.862;9.908;2023-11-19T01:44:14;12.07;;;7.45;;
64875;SDS011;51369;49.862;9.908;2023-11-19T01:46:40;10.18;;;7.30;;
64875;SDS011;51369;49.862;9.908;2023-11-19T01:49:09;11.85;;;7.63;;
64875;SDS011;51369;49.862;9.908;2023-11-19T01:51:34;13.85;;;7.22;;
64875;SDS011;51369;49.862;9.908;2023-11-19T01:54:00;12.05;;;7.75;;
64875;SDS011;51369;49.862;9.908;2023-11-19T01:56:26;12.30;;;7.50;;
64875;SDS011;51369;49.862;9.908;2023-11-19T01:58:53;12.98;;;7.70;;
64875;SDS011;51369;49.862;9.908;2023-11-19T02:01:21;17.85;;;7.80;;
64875;SDS011;51369;49.862;9.908;2023-11-19T02:03:46;12.75;;;7.72;;
64875;SDS011;51369;49.862;9.908;2023-11-19T02:06:12;13.10;;;7.93;;
64875;SDS011;51369;49.862;9.908;2023-11-19T02:08:38;12.13;;;7.38;;
64875;SDS011;51369;49.862;9.908;2023-11-19T02:11:04;12.73;;;6.47;;
64875;SDS011;51369;49.862;9.908;2023-11-19T02:13:31;9.38;;;6.55;;
64875;SDS011;51369;49.862;9.908;2023-11-19T02:15:57;8.02;;;6.13;;
64875;SDS011;51369;49.862;9.908;2023-11-19T02:18:27;8.57;;;5.80;;
64875;SDS011;51369;49.862;9.908;2023-11-19T02:20:54;9.15;;;5.93;;
64875;SDS011;51369;49.862;9.908;2023-11-19T02:23:20;7.30;;;5.20;;
64875;SDS011;51369;49.862;9.908;2023-11-19T02:28:34;8.35;;;5.38;;
64875;SDS011;51369;49.862;9.908;2023-11-19T02:31:01;9.90;;;4.82;;
64875;SDS011;51369;49.862;9.908;2023-11-19T02:33:26;5.90;;;4.82;;
64875;SDS011;51369;49.862;9.908;2023-11-19T02:35:52;5.00;;;3.85;;
64875;SDS011;51369;49.862;9.908;2023-11-19T02:38:17;7.18;;;4.00;;
64875;SDS011;51369;49.862;9.908;2023-11-19T02:40:42;4.53;;;3.63;;
64875;SDS011;51369;49.862;9.908;2023-11-19T02:43:08;3.85;;;3.42;;
64875;SDS011;51369;49.862;9.908;2023-11-19T02:45:33;5.68;;;3.55;;
64875;SDS011;51369;49.862;9.908;2023-11-19T02:47:59;4.68;;;3.05;;
64875;SDS011;51369;49.862;9.908;2023-11-19T02:50:27;4.15;;;3.00;;
64875;SDS011;51369;49.862;9.908;2023-11-19T02:52:53;5.15;;;3.20;;
64875;SDS011;51369;49.862;9.908;2023-11-19T02:55:21;4.25;;;3.47;;
64875;SDS011;51369;49.862;9.908;2023-11-19T02:57:48;3.22;;;2.70;;
64875;SDS011;51369;49.862;9.908;2023-11-19T03:00:15;4.28;;;2.78;;
64875;SDS011;51369;49.862;9.908;2023-11-19T03:02:48;5.22;;;2.88;;
64875;SDS011;51369;49.862;9.908;2023-11-19T03:05:23;4.55;;;2.60;;
64875;SDS011;51369;49.862;9.908;2023-11-19T03:07:49;2.50;;;2.08;;
64875;SDS011;51369;49.862;9.908;2023-11-19T03:10:14;3.08;;;2.35;;
64875;SDS011;51369;49.862;9.908;2023-11-19T03:12:40;2.65;;;2.20;;
64875;SDS011;51369;49.862;9.908;2023-11-19T03:15:06;3.95;;;2.20;;
64875;SDS011;51369;49.862;9.908;2023-11-19T03:17:38;2.33;;;2.00;;
64875;SDS011;51369;49.862;9.908;2023-11-19T03:20:05;4.75;;;2.13;;
64875;SDS011;51369;49.862;9.908;2023-11-19T03:22:32;2.30;;;2.00;;
64875;SDS011;51369;49.862;9.908;2023-11-19T03:24:59;4.78;;;2.00;;
64875;SDS011;51369;49.862;9.908;2023-11-19T03:27:25;3.05;;;1.65;;
64875;SDS011;51369;49.862;9.908;2023-11-19T03:29:50;2.88;;;1.52;;
64875;SDS011;51369;49.862;9.908;2023-11-19T03:32:15;1.80;;;1.67;;
64875;SDS011;51369;49.862;9.908;2023-11-19T03:34:41;1.70;;;1.60;;
64875;SDS011;51369;49.862;9.908;2023-11-19T03:37:07;2.90;;;1.60;;
64875;SDS011;51369;49.862;9.908;2023-11-19T03:39:32;2.67;;;1.85;;
64875;SDS011;51369;49.862;9.908;2023-11-19T03:41:58;4.38;;;1.45;;
64875;SDS011;51369;49.862;9.908;2023-11-19T03:44:25;1.58;;;1.48;;
64875;SDS011;51369;49.862;9.908;2023-11-19T03:46:52;2.38;;;1.67;;
64875;SDS011;51369;49.862;9.908;2023-11-19T03:49:17;2.03;;;1.48;;
64875;SDS011;51369;49.862;9.908;2023-11-19T03:51:43;1.70;;;1.40;;
64875;SDS011;51369;49.862;9.908;2023-11-19T03:54:09;1.60;;;1.30;;
64875;SDS011;51369;49.862;9.908;2023-11-19T03:56:34;1.77;;;1.48;;
64875;SDS011;51369;49.862;9.908;2023-11-19T03:59:00;5.65;;;1.35;;
64875;SDS011;51369;49.862;9.908;2023-11-19T04:01:25;3.60;;;1.40;;
64875;SDS011;51369;49.862;9.908;2023-11-19T04:03:50;1.50;;;1.13;;
64875;SDS011;51369;49.862;9.908;2023-11-19T04:06:16;1.25;;;1.10;;
64875;SDS011;51369;49.862;9.908;2023-11-19T04:08:41;1.20;;;1.10;;
64875;SDS011;51369;49.862;9.908;2023-11-19T04:11:07;1.35;;;1.10;;
64875;SDS011;51369;49.862;9.908;2023-11-19T04:13:33;0.95;;;0.95;;
64875;SDS011;51369;49.862;9.908;2023-11-19T04:15:59;1.30;;;1.20;;
64875;SDS011;51369;49.862;9.908;2023-11-19T04:18:25;1.55;;;1.13;;
64875;SDS011;51369;49.862;9.908;2023-11-19T04:20:50;1.35;;;1.10;;
64875;SDS011;51369;49.862;9.908;2023-11-19T04:23:16;0.98;;;0.93;;
64875;SDS011;51369;49.862;9.908;2023-11-19T04:25:41;1.27;;;1.17;;
64875;SDS011;51369;49.862;9.908;2023-11-19T04:28:06;1.38;;;1.00;;
64875;SDS011;51369;49.862;9.908;2023-11-19T04:30:33;1.10;;;1.00;;
64875;SDS011;51369;49.862;9.908;2023-11-19T04:32:58;0.80;;;0.80;;
64875;SDS011;51369;49.862;9.908;2023-11-19T04:35:24;1.05;;;0.93;;
64875;SDS011;51369;49.862;9.908;2023-11-19T04:37:51;2.70;;;1.17;;
64875;SDS011;51369;49.862;9.908;2023-11-19T04:40:16;1.20;;;1.10;;
64875;SDS011;51369;49.862;9.908;2023-11-19T04:42:43;1.10;;;0.90;;
64875;SDS011;51369;49.862;9.908;2023-11-19T04:45:09;2.03;;;1.13;;
64875;SDS011;51369;49.862;9.908;2023-11-19T04:47:35;3.33;;;0.85;;
64875;SDS011;51369;49.862;9.908;2023-11-19T04:50:01;1.73;;;1.05;;
64875;SDS011;51369;49.862;9.908;2023-11-19T04:52:27;1.20;;;1.10;;
64875;SDS011;51369;49.862;9.908;2023-11-19T04:54:52;1.77;;;1.10;;
64875;SDS011;51369;49.862;9.908;2023-11-19T04:57:18;1.15;;;1.05;;
64875;SDS011;51369;49.862;9.908;2023-11-19T04:59:44;1.40;;;1.30;;
64875;SDS011;51369;49.862;9.908;2023-11-19T05:02:10;1.35;;;1.25;;
64875;SDS011;51369;49.862;9.908;2023-11-19T05:04:35;3.75;;;1.20;;
64875;SDS011;51369;49.862;9.908;2023-11-19T05:07:01;1.35;;;1.10;;
64875;SDS011;51369;49.862;9.908;2023-11-19T05:09:27;4.45;;;1.30;;
64875;SDS011;51369;49.862;9.908;2023-11-19T05:11:52;1.50;;;1.27;;
64875;SDS011;51369;49.862;9.908;2023-11-19T05:14:17;1.33;;;1.23;;
64875;SDS011;51369;49.862;9.908;2023-11-19T05:16:46;1.77;;;1.30;;
64875;SDS011;51369;49.862;9.908;2023-11-19T05:19:12;1.52;;;1.42;;
64875;SDS011;51369;49.862;9.908;2023-11-19T05:21:37;5.75;;;1.45;;
64875;SDS011;51369;49.862;9.908;2023-11-19T05:24:03;2.35;;;1.55;;
64875;SDS011;51369;49.862;9.908;2023-11-19T05:26:31;1.65;;;1.50;;
64875;SDS011;51369;49.862;9.908;2023-11-19T05:28:56;2.47;;;1.80;;
64875;SDS011;51369;49.862;9.908;2023-11-19T05:31:22;3.58;;;1.55;;
64875;SDS011;51369;49.862;9.908;2023-11-19T05:33:47;2.17;;;1.60;;
64875;SDS011;51369;49.862;9.908;2023-11-19T05:36:13;1.92;;;1.73;;
64875;SDS011;51369;49.862;9.908;2023-11-19T05:38:39;2.00;;;1.65;;
64875;SDS011;51369;49.862;9.908;2023-11-19T05:41:04;1.70;;;1.60;;
64875;SDS011;51369;49.862;9.908;2023-11-19T05:43:30;1.90;;;1.70;;
64875;SDS011;51369;49.862;9.908;2023-11-19T05:45:56;3.28;;;1.40;;
64875;SDS011;51369;49.862;9.908;2023-11-19T05:48:22;1.67;;;1.58;;
64875;SDS011;51369;49.862;9.908;2023-11-19T05:50:47;1.75;;;1.55;;
64875;SDS011;51369;49.862;9.908;2023-11-19T05:53:15;1.90;;;1.63;;
64875;SDS011;51369;49.862;9.908;2023-11-19T05:55:41;2.10;;;1.80;;
64875;SDS011;51369;49.862;9.908;2023-11-19T05:58:24;2.13;;;1.80;;
64875;SDS011;51369;49.862;9.908;2023-11-19T06:00:58;1.80;;;1.63;;
64875;SDS011;51369;49.862;9.908;2023-11-19T06:03:26;1.48;;;1.38;;
64875;SDS011;51369;49.862;9.908;2023-11-19T06:05:51;3.10;;;1.30;;
64875;SDS011;51369;49.862;9.908;2023-11-19T06:08:19;2.85;;;1.27;;
64875;SDS011;51369;49.862;9.908;2023-11-19T06:10:45;4.93;;;2.25;;
64875;SDS011;51369;49.862;9.908;2023-11-19T06:13:11;4.07;;;1.58;;
64875;SDS011;51369;49.862;9.908;2023-11-19T06:15:41;3.70;;;1.27;;
64875;SDS011;51369;49.862;9.908;2023-11-19T06:18:07;2.65;;;1.45;;
64875;SDS011;51369;49.862;9.908;2023-11-19T06:20:33;1.20;;;1.10;;
64875;SDS011;51369;49.862;9.908;2023-11-19T06:22:59;1.45;;;1.02;;
64875;SDS011;51369;49.862;9.908;2023-11-19T06:25:25;2.05;;;1.38;;
64875;SDS011;51369;49.862;9.908;2023-11-19T06:27:50;1.50;;;1.40;;
64875;SDS011;51369;49.862;9.908;2023-11-19T06:30:16;2.05;;;1.52;;
64875;SDS011;51369;49.862;9.908;2023-11-19T06:32:42;1.55;;;1.45;;
64875;SDS011;51369;49.862;9.908;2023-11-19T06:35:07;2.20;;;1.27;;
64875;SDS011;51369;49.862;9.908;2023-11-19T06:37:35;1.67;;;1.42;;
64875;SDS011;51369;49.862;9.908;2023-11-19T06:40:01;1.63;;;1.52;;
64875;SDS011;51369;49.862;9.908;2023-11-19T06:42:27;4.43;;;1.85;;
64875;SDS011;51369;49.862;9.908;2023-11-19T06:44:52;1.92;;;1.30;;
64875;SDS011;51369;49.862;9.908;2023-11-19T06:47:18;3.03;;;1.48;;
64875;SDS011;51369;49.862;9.908;2023-11-19T06:49:44;2.92;;;1.17;;
64875;SDS011;51369;49.862;9.908;2023-11-19T06:52:09;3.25;;;1.20;;
64875;SDS011;51369;49.862;9.908;2023-11-19T06:54:34;1.80;;;1.30;;
64875;SDS011;51369;49.862;9.908;2023-11-19T06:57:00;1.63;;;1.33;;
64875;SDS011;51369;49.862;9.908;2023-11-19T06:59:25;4.95;;;1.38;;
64875;SDS011;51369;49.862;9.908;2023-11-19T07:01:51;1.00;;;0.95;;
64875;SDS011;51369;49.862;9.908;2023-11-19T07:04:16;3.50;;;1.40;;
64875;SDS011;51369;49.862;9.908;2023-11-19T07:06:41;3.47;;;1.77;;
64875;SDS011;51369;49.862;9.908;2023-11-19T07:09:07;3.22;;;1.30;;
64875;SDS011;51369;49.862;9.908;2023-11-19T07:11:39;2.03;;;1.35;;
64875;SDS011;51369;49.862;9.908;2023-11-19T07:14:05;2.72;;;1.13;;
64875;SDS011;51369;49.862;9.908;2023-11-19T07:16:31;1.30;;;1.20;;
64875;SDS011;51369;49.862;9.908;2023-11-19T07:18:59;4.00;;;1.38;;
64875;SDS011;51369;49.862;9.908;2023-11-19T07:21:25;2.05;;;1.40;;
64875;SDS011;51369;49.862;9.908;2023-11-19T07:23:50;5.75;;;1.55;;
64875;SDS011;51369;49.862;9.908;2023-11-19T07:26:17;1.40;;;1.30;;
64875;SDS011;51369;49.862;9.908;2023-11-19T07:28:42;1.50;;;1.10;;
64875;SDS011;51369;49.862;9.908;2023-11-19T07:31:10;1.95;;;0.98;;
64875;SDS011;51369;49.862;9.908;2023-11-19T07:33:35;1.88;;;1.30;;
64875;SDS011;51369;49.862;9.908;2023-11-19T07:36:01;0.88;;;0.88;;
64875;SDS011;51369;49.862;9.908;2023-11-19T07:38:26;2.00;;;0.90;;
64875;SDS011;51369;49.862;9.908;2023-11-19T07:40:51;1.50;;;1.25;;
64875;SDS011;51369;49.862;9.908;2023-11-19T07:43:17;1.20;;;1.10;;
64875;SDS011;51369;49.862;9.908;2023-11-19T07:45:42;0.68;;;0.68;;
64875;SDS011;51369;49.862;9.908;2023-11-19T07:48:10;1.05;;;0.95;;
64875;SDS011;51369;49.862;9.908;2023-11-19T07:50:36;0.70;;;0.70;;
64875;SDS011;51369;49.862;9.908;2023-11-19T07:53:01;1.50;;;0.70;;
64875;SDS011;51369;49.862;9.908;2023-11-19T07:55:29;1.10;;;0.80;;
64875;SDS011;51369;49.862;9.908;2023-11-19T07:57:55;1.63;;;0.88;;
64875;SDS011;51369;49.862;9.908;2023-11-19T08:00:20;0.77;;;0.70;;
64875;SDS011;51369;49.862;9.908;2023-11-19T08:02:46;1.08;;;0.80;;
64875;SDS011;51369;49.862;9.908;2023-11-19T08:05:11;3.65;;;0.80;;
64875;SDS011;51369;49.862;9.908;2023-11-19T08:07:37;0.95;;;0.60;;
64875;SDS011;51369;49.862;9.908;2023-11-19T08:10:04;0.80;;;0.80;;
64875;SDS011;51369;49.862;9.908;2023-11-19T08:12:31;1.42;;;0.60;;
64875;SDS011;51369;49.862;9.908;2023-11-19T08:14:56;0.68;;;0.68;;
64875;SDS011;51369;49.862;9.908;2023-11-19T08:17:23;0.82;;;0.60;;
64875;SDS011;51369;49.862;9.908;2023-11-19T08:19:49;0.60;;;0.60;;
64875;SDS011;51369;49.862;9.908;2023-11-19T08:22:14;1.45;;;0.55;;
64875;SDS011;51369;49.862;9.908;2023-11-19T08:24:41;0.60;;;0.60;;
64875;SDS011;51369;49.862;9.908;2023-11-19T08:27:07;0.70;;;0.65;;
64875;SDS011;51369;49.862;9.908;2023-11-19T08:29:32;0.70;;;0.60;;
64875;SDS011;51369;49.862;9.908;2023-11-19T08:31:57;0.65;;;0.50;;
64875;SDS011;51369;49.862;9.908;2023-11-19T08:34:25;0.90;;;0.90;;
64875;SDS011;51369;49.862;9.908;2023-11-19T08:36:51;0.70;;;0.70;;
64875;SDS011;51369;49.862;9.908;2023-11-19T08:39:18;0.80;;;0.80;;
64875;SDS011;51369;49.862;9.908;2023-11-19T08:41:44;1.40;;;0.80;;
64875;SDS011;51369;49.862;9.908;2023-11-19T08:44:09;2.50;;;1.20;;
64875;SDS011;51369;49.862;9.908;2023-11-19T08:46:35;4.75;;;1.20;;
64875;SDS011;51369;49.862;9.908;2023-11-19T08:49:00;1.13;;;1.00;;
64875;SDS011;51369;49.862;9.908;2023-11-19T08:51:25;2.08;;;1.30;;
64875;SDS011;51369;49.862;9.908;2023-11-19T08:53:51;1.27;;;1.17;;
64875;SDS011;51369;49.862;9.908;2023-11-19T08:56:16;2.35;;;1.92;;
64875;SDS011;51369;49.862;9.908;2023-11-19T08:58:42;2.15;;;1.67;;
64875;SDS011;51369;49.862;9.908;2023-11-19T09:01:07;2.20;;;1.83;;
64875;SDS011;51369;49.862;9.908;2023-11-19T09:03:32;2.10;;;1.70;;
64875;SDS011;51369;49.862;9.908;2023-11-19T09:05:58;1.70;;;1.60;;
64875;SDS011;51369;49.862;9.908;2023-11-19T09:08:25;3.33;;;2.08;;
64875;SDS011;51369;49.862;9.908;2023-11-19T09:10:50;5.53;;;2.38;;
64875;SDS011;51369;49.862;9.908;2023-11-19T09:13:16;7.93;;;2.70;;
64875;SDS011;51369;49.862;9.908;2023-11-19T09:15:41;6.55;;;2.55;;
64875;SDS011;51369;49.862;9.908;2023-11-19T09:18:07;6.65;;;2.45;;
64875;SDS011;51369;49.862;9.908;2023-11-19T09:20:32;3.35;;;2.60;;
64875;SDS011;51369;49.862;9.908;2023-11-19T09:23:03;6.85;;;2.97;;
64875;SDS011;51369;49.862;9.908;2023-11-19T09:25:28;4.15;;;3.00;;
64875;SDS011;51369;49.862;9.908;2023-11-19T09:27:54;8.38;;;2.78;;
64875;SDS011;51369;49.862;9.908;2023-11-19T09:30:19;5.63;;;2.85;;
64875;SDS011;51369;49.862;9.908;2023-11-19T09:32:45;8.75;;;3.03;;
64875;SDS011;51369;49.862;9.908;2023-11-19T09:35:10;8.25;;;3.10;;
64875;SDS011;51369;49.862;9.908;2023-11-19T09:37:38;10.68;;;3.60;;
64875;SDS011;51369;49.862;9.908;2023-11-19T09:40:04;8.77;;;3.10;;
64875;SDS011;51369;49.862;9.908;2023-11-19T09:42:31;7.18;;;3.20;;
64875;SDS011;51369;49.862;9.908;2023-11-19T09:45:11;6.68;;;2.92;;
64875;SDS011;51369;49.862;9.908;2023-11-19T09:47:39;10.60;;;3.05;;
64875;SDS011;51369;49.862;9.908;2023-11-19T09:50:05;8.68;;;2.63;;
64875;SDS011;51369;49.862;9.908;2023-11-19T09:52:31;6.72;;;2.28;;
64875;SDS011;51369;49.862;9.908;2023-11-19T09:54:56;5.72;;;2.50;;
64875;SDS011;51369;49.862;9.908;2023-11-19T09:57:21;5.97;;;2.60;;
64875;SDS011;51369;49.862;9.908;2023-11-19T09:59:47;8.15;;;2.60;;
64875;SDS011;51369;49.862;9.908;2023-11-19T10:02:15;5.10;;;2.55;;
64875;SDS011;51369;49.862;9.908;2023-11-19T10:04:42;3.80;;;2.28;;
64875;SDS011;51369;49.862;9.908;2023-11-19T10:07:09;6.55;;;2.95;;
64875;SDS011;51369;49.862;9.908;2023-11-19T10:09:34;5.93;;;2.42;;
64875;SDS011;51369;49.862;9.908;2023-11-19T10:12:00;6.60;;;2.35;;
64875;SDS011;51369;49.862;9.908;2023-11-19T10:14:26;6.80;;;2.58;;
64875;SDS011;51369;49.862;9.908;2023-11-19T10:16:54;6.35;;;2.30;;
64875;SDS011;51369;49.862;9.908;2023-11-19T10:19:20;7.20;;;2.05;;
64875;SDS011;51369;49.862;9.908;2023-11-19T10:21:46;3.20;;;2.40;;
64875;SDS011;51369;49.862;9.908;2023-11-19T10:24:12;7.18;;;2.13;;
64875;SDS011;51369;49.862;9.908;2023-11-19T10:26:37;11.68;;;2.85;;
64875;SDS011;51369;49.862;9.908;2023-11-19T10:29:03;6.95;;;2.00;;
64875;SDS011;51369;49.862;9.908;2023-11-19T10:31:29;7.72;;;2.13;;
64875;SDS011;51369;49.862;9.908;2023-11-19T10:33:54;6.18;;;1.92;;
64875;SDS011;51369;49.862;9.908;2023-11-19T10:36:19;3.40;;;1.77;;
64875;SDS011;51369;49.862;9.908;2023-11-19T10:38:54;8.00;;;2.33;;
64875;SDS011;51369;49.862;9.908;2023-11-19T10:41:28;3.60;;;1.77;;
64875;SDS011;51369;49.862;9.908;2023-11-19T10:43:55;4.55;;;2.00;;
64875;SDS011;51369;49.862;9.908;2023-11-19T10:46:21;3.70;;;1.40;;
64875;SDS011;51369;49.862;9.908;2023-11-19T10:48:48;11.95;;;1.98;;
64875;SDS011;51369;49.862;9.908;2023-11-19T10:51:14;3.42;;;1.77;;
64875;SDS011;51369;49.862;9.908;2023-11-19T10:53:46;6.38;;;1.48;;
64875;SDS011;51369;49.862;9.908;2023-11-19T10:56:15;4.32;;;1.38;;
64875;SDS011;51369;49.862;9.908;2023-11-19T10:58:44;4.38;;;1.80;;
64875;SDS011;51369;49.862;9.908;2023-11-19T11:01:16;5.85;;;1.27;;
64875;SDS011;51369;49.862;9.908;2023-11-19T11:03:46;5.63;;;1.50;;
64875;SDS011;51369;49.862;9.908;2023-11-19T11:06:12;3.90;;;1.92;;
64875;SDS011;51369;49.862;9.908;2023-11-19T11:08:38;3.60;;;1.52;;
64875;SDS011;51369;49.862;9.908;2023-11-19T11:11:05;6.65;;;1.90;;
64875;SDS011;51369;49.862;9.908;2023-11-19T11:13:32;6.75;;;1.70;;
64875;SDS011;51369;49.862;9.908;2023-11-19T11:15:58;7.97;;;2.15;;
64875;SDS011;51369;49.862;9.908;2023-11-19T11:18:24;2.88;;;1.30;;
64875;SDS011;51369;49.862;9.908;2023-11-19T11:20:52;4.10;;;1.63;;
64875;SDS011;51369;49.862;9.908;2023-11-19T11:34:28;3.47;;;1.50;;
64875;SDS011;51369;49.862;9.908;2023-11-19T11:37:13;5.07;;;1.60;;
64875;SDS011;51369;49.862;9.908;2023-11-19T11:39:42;5.35;;;1.75;;
64875;SDS011;51369;49.862;9.908;2023-11-19T11:50:11;1.90;;;1.30;;
64875;SDS011;51369;49.862;9.908;2023-11-19T11:55:24;10.13;;;2.33;;
64875;SDS011;51369;49.862;9.908;2023-11-19T11:57:53;5.80;;;1.75;;
64875;SDS011;51369;49.862;9.908;2023-11-19T12:02:51;5.47;;;1.60;;
64875;SDS011;51369;49.862;9.908;2023-11-19T12:05:16;5.07;;;1.60;;
64875;SDS011;51369;49.862;9.908;2023-11-19T12:07:44;6.25;;;1.98;;
64875;SDS011;51369;49.862;9.908;2023-11-19T12:10:20;5.18;;;1.67;;
64875;SDS011;51369;49.862;9.908;2023-11-19T12:12:47;3.88;;;2.20;;
64875;SDS011;51369;49.862;9.908;2023-11-19T12:15:12;11.05;;;2.38;;
64875;SDS011;51369;49.862;9.908;2023-11-19T12:17:43;7.93;;;1.80;;
64875;SDS011;51369;49.862;9.908;2023-11-19T12:20:15;7.45;;;2.42;;
64875;SDS011;51369;49.862;9.908;2023-11-19T12:22:42;4.90;;;1.40;;
64875;SDS011;51369;49.862;9.908;2023-11-19T12:25:09;7.72;;;1.70;;
64875;SDS011;51369;49.862;9.908;2023-11-19T12:27:40;5.82;;;1.50;;
64875;SDS011;51369;49.862;9.908;2023-11-19T12:30:09;4.43;;;1.80;;
64875;SDS011;51369;49.862;9.908;2023-11-19T12:32:38;4.90;;;1.52;;
64875;SDS011;51369;49.862;9.908;2023-11-19T12:35:04;5.18;;;1.60;;
64875;SDS011;51369;49.862;9.908;2023-11-19T12:37:29;2.45;;;1.77;;
64875;SDS011;51369;49.862;9.908;2023-11-19T12:39:56;4.05;;;1.52;;
64875;SDS011;51369;49.862;9.908;2023-11-19T12:42:34;6.28;;;1.65;;
64875;SDS011;51369;49.862;9.908;2023-11-19T12:45:00;4.85;;;1.50;;
64875;SDS011;51369;49.862;9.908;2023-11-19T12:47:26;7.03;;;1.65;;
64875;SDS011;51369;49.862;9.908;2023-11-19T12:49:57;10.10;;;1.88;;
64875;SDS011;51369;49.862;9.908;2023-11-19T12:52:23;7.65;;;1.70;;
64875;SDS011;51369;49.862;9.908;2023-11-19T12:54:48;5.97;;;2.20;;
64875;SDS011;51369;49.862;9.908;2023-11-19T12:57:14;6.13;;;1.33;;
64875;SDS011;51369;49.862;9.908;2023-11-19T12:59:40;10.93;;;1.65;;
64875;SDS011;51369;49.862;9.908;2023-11-19T13:02:06;10.18;;;3.05;;
64875;SDS011;51369;49.862;9.908;2023-11-19T13:04:32;7.00;;;1.83;;
64875;SDS011;51369;49.862;9.908;2023-11-19T13:06:58;3.38;;;1.27;;
64875;SDS011;51369;49.862;9.908;2023-11-19T13:09:27;3.97;;;2.22;;
64875;SDS011;51369;49.862;9.908;2023-11-19T13:11:54;3.58;;;1.40;;
64875;SDS011;51369;49.862;9.908;2023-11-19T13:14:20;5.95;;;1.60;;
64875;SDS011;51369;49.862;9.908;2023-11-19T13:16:46;2.75;;;1.50;;
64875;SDS011;51369;49.862;9.908;2023-11-19T13:19:15;5.40;;;1.73;;
64875;SDS011;51369;49.862;9.908;2023-11-19T13:21:44;4.55;;;1.90;;
64875;SDS011;51369;49.862;9.908;2023-11-19T13:24:12;5.03;;;1.83;;
64875;SDS011;51369;49.862;9.908;2023-11-19T13:26:38;4.60;;;1.70;;
64875;SDS011;51369;49.862;9.908;2023-11-19T13:29:04;4.80;;;1.63;;
64875;SDS011;51369;49.862;9.908;2023-11-19T13:31:29;4.78;;;1.65;;
64875;SDS011;51369;49.862;9.908;2023-11-19T13:33:55;8.23;;;1.85;;
64875;SDS011;51369;49.862;9.908;2023-11-19T13:36:21;5.90;;;1.77;;
64875;SDS011;51369;49.862;9.908;2023-11-19T13:38:47;3.42;;;1.48;;
64875;SDS011;51369;49.862;9.908;2023-11-19T13:41:12;2.80;;;1.27;;
64875;SDS011;51369;49.862;9.908;2023-11-19T13:43:39;3.03;;;1.15;;
64875;SDS011;51369;49.862;9.908;2023-11-19T13:46:05;3.20;;;1.48;;
64875;SDS011;51369;49.862;9.908;2023-11-19T13:48:30;5.75;;;1.52;;
64875;SDS011;51369;49.862;9.908;2023-11-19T13:50:56;6.10;;;1.60;;
64875;SDS011;51369;49.862;9.908;2023-11-19T13:53:21;4.82;;;1.50;;
64875;SDS011;51369;49.862;9.908;2023-11-19T13:55:48;9.18;;;1.55;;
64875;SDS011;51369;49.862;9.908;2023-11-19T13:58:14;4.82;;;1.33;;
64875;SDS011;51369;49.862;9.908;2023-11-19T14:00:39;6.07;;;1.55;;
64875;SDS011;51369;49.862;9.908;2023-11-19T14:03:07;8.75;;;2.40;;
64875;SDS011;51369;49.862;9.908;2023-11-19T14:05:32;8.57;;;1.70;;
64875;SDS011;51369;49.862;9.908;2023-11-19T14:07:58;3.95;;;1.65;;
64875;SDS011;51369;49.862;9.908;2023-11-19T14:10:26;5.63;;;1.52;;
64875;SDS011;51369;49.862;9.908;2023-11-19T14:12:51;5.82;;;1.58;;
64875;SDS011;51369;49.862;9.908;2023-11-19T14:15:16;5.45;;;1.40;;
64875;SDS011;51369;49.862;9.908;2023-11-19T14:17:45;8.75;;;2.20;;
64875;SDS011;51369;49.862;9.908;2023-11-19T14:20:10;6.78;;;1.55;;
64875;SDS011;51369;49.862;9.908;2023-11-19T14:22:42;7.90;;;1.40;;
64875;SDS011;51369;49.862;9.908;2023-11-19T14:25:09;8.65;;;1.77;;
64875;SDS011;51369;49.862;9.908;2023-11-19T14:27:36;7.53;;;1.80;;
64875;SDS011;51369;49.862;9.908;2023-11-19T14:30:04;7.22;;;1.20;;
64875;SDS011;51369;49.862;9.908;2023-11-19T14:32:40;4.38;;;1.80;;
64875;SDS011;51369;49.862;9.908;2023-11-19T14:35:11;7.75;;;2.28;;
64875;SDS011;51369;49.862;9.908;2023-11-19T14:37:36;3.22;;;1.50;;
64875;SDS011;51369;49.862;9.908;2023-11-19T14:40:02;6.05;;;1.40;;
64875;SDS011;51369;49.862;9.908;2023-11-19T14:42:31;13.30;;;2.35;;
64875;SDS011;51369;49.862;9.908;2023-11-19T14:44:57;4.97;;;1.60;;
64875;SDS011;51369;49.862;9.908;2023-11-19T14:47:22;7.80;;;2.13;;
64875;SDS011;51369;49.862;9.908;2023-11-19T14:49:48;8.40;;;1.52;;
64875;SDS011;51369;49.862;9.908;2023-11-19T14:52:13;5.55;;;1.38;;
64875;SDS011;51369;49.862;9.908;2023-11-19T14:54:39;10.98;;;1.92;;
64875;SDS011;51369;49.862;9.908;2023-11-19T14:57:05;5.50;;;1.67;;
64875;SDS011;51369;49.862;9.908;2023-11-19T14:59:33;8.15;;;1.70;;
64875;SDS011;51369;49.862;9.908;2023-11-19T15:01:58;7.68;;;1.42;;
64875;SDS011;51369;49.862;9.908;2023-11-19T15:04:25;6.93;;;1.65;;
64875;SDS011;51369;49.862;9.908;2023-11-19T15:06:51;4.40;;;1.63;;
64875;SDS011;51369;49.862;9.908;2023-11-19T15:09:16;8.60;;;1.73;;